Birch Harbor, Maine
Current Conditions -  °F | °C
As of 3:55 AM on Thursday 23 Oct 2014 (Local Time) from KBHB Reporting Station
Overcast Overcast  
Wind Chill: 50°   Ceiling: 800
Heat Index: 50°   Visibility: 5mi
Dew Point: 50°   Wind: 15mph
Humidity: 100%   Direction: 40°NE
Pressure: 29.95"   Gusts: 24mph
Location:  44.39°N, 68.04°W
Report Text: KBHB 230755Z AUTO 04013G21KT 5SM OVC008 10/10 A2995 RMK AO1 P0006
Loading
Personal Weather Stations






























Interactive Weather Map
Tropical Storm Tracking
New forecast layout! Learn more

10-Day Weather Forecast

Advertisements
Track Severe Weather on mobile